Time;durP1;ratioP1;P1;durP2;ratioP2;P2;SDS_P1;SDS_P2;PMS_P1;PMS_P2;Temp;Humidity;BMP_temperature;BMP_pressure;BME280_temperature;BME280_humidity;BME280_pressure;Samples;Min_cycle;Max_cycle;Signal;HPM_P1;HPM_P2
2021/12/31 00:01:01;;;;;;;5.30;0.97;;;13.90;99.90;;;;;;4978815;28;20027;-79
2021/12/31 00:03:27;;;;;;;7.47;1.33;;;13.90;99.90;;;;;;4977169;28;20097;-78
2021/12/31 00:05:55;;;;;;;2.17;0.97;;;13.90;99.90;;;;;;4979420;28;20023;-79
2021/12/31 00:08:21;;;;;;;2.60;0.80;;;13.90;99.90;;;;;;4978218;28;20031;-78
2021/12/31 00:10:46;;;;;;;4.27;0.90;;;14.00;99.90;;;;;;4979902;28;20050;-78
2021/12/31 00:13:15;;;;;;;3.47;0.90;;;14.00;99.90;;;;;;5006532;23;20041;-78
2021/12/31 00:15:40;;;;;;;3.87;0.70;;;14.00;99.90;;;;;;4993240;28;20046;-78
2021/12/31 00:18:06;;;;;;;3.10;0.97;;;13.90;99.90;;;;;;4992542;28;20046;-79
2021/12/31 00:20:34;;;;;;;3.23;0.50;;;14.00;99.90;;;;;;4992955;28;20053;-77
2021/12/31 00:23:08;;;;;;;1.37;0.87;;;14.00;99.90;;;;;;4992550;28;20018;-79
2021/12/31 00:25:37;;;;;;;5.57;1.10;;;13.90;99.90;;;;;;4993425;28;20030;-78
2021/12/31 00:28:04;;;;;;;1.17;0.70;;;13.90;99.90;;;;;;4993346;28;20387;-78
2021/12/31 00:30:30;;;;;;;6.53;1.17;;;13.90;99.90;;;;;;5006724;28;20027;-79
2021/12/31 00:32:56;;;;;;;6.37;1.00;;;13.90;99.90;;;;;;4991660;28;20027;-78
2021/12/31 00:35:22;;;;;;;1.77;0.93;;;13.90;99.90;;;;;;4990846;28;20023;-78
2021/12/31 00:37:48;;;;;;;5.60;0.50;;;13.90;99.90;;;;;;4992124;28;20037;-78
2021/12/31 00:40:16;;;;;;;4.03;1.00;;;13.90;99.90;;;;;;4990049;28;20070;-78
2021/12/31 00:42:42;;;;;;;7.77;1.07;;;13.90;99.90;;;;;;4991609;28;20031;-78
2021/12/31 00:45:11;;;;;;;2.27;0.87;;;13.90;99.90;;;;;;4991477;28;20038;-78
2021/12/31 00:47:37;;;;;;;8.27;0.93;;;13.90;99.90;;;;;;4988840;28;20027;-79
2021/12/31 00:50:03;;;;;;;1.73;0.60;;;13.90;99.90;;;;;;4992300;28;20019;-78
2021/12/31 00:52:29;;;;;;;2.37;0.80;;;13.90;99.90;;;;;;4989997;28;20038;-78
2021/12/31 00:54:55;;;;;;;3.33;1.00;;;13.90;99.90;;;;;;4990280;28;20030;-78
2021/12/31 00:57:24;;;;;;;3.43;1.03;;;13.90;99.90;;;;;;4991308;28;20027;-78
2021/12/31 00:59:50;;;;;;;1.63;0.70;;;13.90;99.90;;;;;;4992213;28;20042;-78
2021/12/31 01:02:18;;;;;;;4.87;0.60;;;13.90;99.90;;;;;;4991823;28;20038;-78
2021/12/31 01:04:44;;;;;;;3.43;0.70;;;13.90;99.90;;;;;;5005321;28;20015;-77
2021/12/31 01:07:09;;;;;;;1.47;0.63;;;13.80;99.90;;;;;;4992064;28;20038;-78
2021/12/31 01:09:37;;;;;;;1.43;0.80;;;13.90;99.90;;;;;;4992177;28;20038;-78
2021/12/31 01:12:07;;;;;;;1.13;0.37;;;13.90;99.90;;;;;;4989842;28;20035;-79
2021/12/31 01:14:37;;;;;;;3.27;0.43;;;13.90;99.90;;;;;;4987780;28;20011;-78
2021/12/31 01:17:07;;;;;;;2.00;1.43;;;13.90;99.90;;;;;;4991731;28;20011;-79
2021/12/31 01:19:46;;;;;;;3.07;0.50;;;13.90;99.90;;;;;;4991138;28;20016;-79
2021/12/31 01:22:29;;;;;;;1.07;0.43;;;14.00;99.90;;;;;;4991444;28;20023;-78
2021/12/31 01:24:55;;;;;;;2.53;1.13;;;13.90;99.90;;;;;;4987861;28;20034;-79
2021/12/31 01:27:21;;;;;;;3.37;0.30;;;13.90;99.90;;;;;;4990720;28;20077;-78
2021/12/31 01:29:47;;;;;;;2.60;0.70;;;13.90;99.90;;;;;;5008185;28;20034;-78
2021/12/31 01:32:13;;;;;;;1.20;0.53;;;13.90;99.90;;;;;;5003883;28;20031;-79
2021/12/31 01:34:40;;;;;;;1.20;0.80;;;13.90;99.90;;;;;;4990126;28;20063;-80
2021/12/31 01:37:07;;;;;;;2.23;0.70;;;13.90;99.90;;;;;;4991092;28;20110;-79
2021/12/31 01:39:33;;;;;;;2.30;0.50;;;13.90;99.90;;;;;;4973556;28;20023;-78
2021/12/31 01:42:00;;;;;;;1.13;0.60;;;14.00;99.90;;;;;;4990571;28;21092;-77
2021/12/31 01:44:41;;;;;;;4.30;0.70;;;14.00;99.90;;;;;;5123467;23;20034;-77
2021/12/31 01:47:13;;;;;;;1.20;0.60;;;14.00;99.90;;;;;;4969156;28;20071;-78
2021/12/31 01:49:41;;;;;;;2.33;0.50;;;14.00;99.90;;;;;;4955948;28;20064;-78
2021/12/31 01:52:12;;;;;;;0.93;0.60;;;13.90;99.90;;;;;;4971726;28;20035;-78
2021/12/31 01:54:39;;;;;;;6.80;0.80;;;13.90;99.90;;;;;;4954729;28;20035;-79
2021/12/31 01:57:07;;;;;;;1.77;0.50;;;14.00;99.90;;;;;;4968423;28;20030;-78
2021/12/31 01:59:36;;;;;;;1.60;0.50;;;14.00;99.90;;;;;;4972643;28;20046;-77
2021/12/31 02:02:06;;;;;;;5.37;1.00;;;14.00;99.90;;;;;;4971621;28;20023;-78
2021/12/31 02:04:37;;;;;;;0.77;0.40;;;14.00;99.90;;;;;;4952524;28;20015;-78
2021/12/31 02:07:04;;;;;;;3.77;0.40;;;14.00;99.90;;;;;;4969174;28;20050;-79
2021/12/31 02:09:35;;;;;;;5.57;0.70;;;14.00;99.90;;;;;;4968116;28;20030;-79
2021/12/31 02:12:03;;;;;;;1.43;0.43;;;14.00;99.90;;;;;;4968726;28;20035;-78
2021/12/31 02:14:31;;;;;;;0.93;0.63;;;14.00;99.90;;;;;;4954743;28;20031;-79
2021/12/31 02:16:56;;;;;;;2.47;0.90;;;14.00;99.90;;;;;;4971417;28;20046;-77
2021/12/31 02:19:28;;;;;;;3.17;0.70;;;14.00;99.90;;;;;;4953923;28;20023;-79
2021/12/31 02:21:55;;;;;;;1.48;0.73;;;14.00;99.90;;;;;;4953940;28;20202;-76
2021/12/31 02:24:22;;;;;;;1.33;0.67;;;13.90;99.90;;;;;;4968327;28;20047;-78
2021/12/31 02:26:49;;;;;;;0.40;0.37;;;13.80;99.90;;;;;;4954732;28;20025;-79
2021/12/31 02:29:14;;;;;;;1.27;0.40;;;13.90;99.90;;;;;;4971114;28;20020;-78
2021/12/31 02:31:40;;;;;;;3.70;0.60;;;13.90;99.90;;;;;;4968390;28;20038;-79
2021/12/31 02:34:06;;;;;;;2.53;0.40;;;13.80;99.90;;;;;;4952610;28;20030;-78
2021/12/31 02:36:32;;;;;;;1.53;0.50;;;13.80;99.90;;;;;;4948517;28;20062;-79
2021/12/31 02:39:00;;;;;;;0.53;0.37;;;13.90;99.90;;;;;;4953765;28;20023;-79
2021/12/31 02:41:25;;;;;;;5.83;0.67;;;13.90;99.90;;;;;;4955767;28;20027;-78
2021/12/31 02:43:51;;;;;;;2.53;0.70;;;13.90;99.90;;;;;;5005864;23;20021;-79
2021/12/31 02:46:17;;;;;;;0.50;0.40;;;13.90;99.90;;;;;;4949492;28;20091;-79
2021/12/31 02:48:44;;;;;;;0.90;0.63;;;13.80;99.90;;;;;;4964960;28;20015;-79
2021/12/31 02:51:09;;;;;;;0.83;0.40;;;13.90;99.90;;;;;;4950119;28;20048;-78
2021/12/31 02:53:36;;;;;;;0.70;0.40;;;13.80;99.90;;;;;;4948932;28;20209;-78
2021/12/31 02:56:09;;;;;;;1.07;0.50;;;13.80;99.90;;;;;;4948328;28;20135;-78
2021/12/31 02:58:35;;;;;;;1.17;0.45;;;13.80;99.90;;;;;;4966207;28;20119;-78
2021/12/31 03:01:02;;;;;;;0.60;0.40;;;13.80;99.90;;;;;;4964400;28;20035;-79
2021/12/31 03:03:29;;;;;;;0.60;0.40;;;13.80;99.90;;;;;;4952716;28;20485;-79
2021/12/31 03:05:58;;;;;;;2.00;0.50;;;13.80;99.90;;;;;;4951984;28;20023;-78
2021/12/31 03:08:29;;;;;;;3.60;0.53;;;13.80;99.90;;;;;;5016866;23;20046;-79
2021/12/31 03:10:59;;;;;;;6.10;0.80;;;13.80;99.90;;;;;;4971516;28;20045;-79
2021/12/31 03:13:24;;;;;;;4.00;0.90;;;13.90;99.90;;;;;;4990273;28;20023;-79
2021/12/31 03:15:52;;;;;;;1.30;0.77;;;13.90;99.90;;;;;;4967243;28;20033;-79
2021/12/31 03:18:19;;;;;;;2.10;0.80;;;13.90;99.90;;;;;;4972317;28;20031;-79
2021/12/31 03:20:57;;;;;;;2.43;0.43;;;13.80;99.90;;;;;;4970221;28;20031;-78
2021/12/31 03:23:27;;;;;;;4.10;0.90;;;13.80;99.90;;;;;;4972252;28;20038;-79
2021/12/31 03:25:53;;;;;;;2.50;0.50;;;13.80;99.90;;;;;;4971433;28;20058;-78
2021/12/31 03:28:20;;;;;;;1.70;0.70;;;13.80;99.90;;;;;;4969583;28;20031;-78
2021/12/31 03:30:49;;;;;;;1.07;0.50;;;13.80;99.90;;;;;;4969195;28;20050;-78
2021/12/31 03:33:16;;;;;;;0.80;0.60;;;13.80;99.90;;;;;;4970047;28;20042;-78
2021/12/31 03:35:42;;;;;;;0.57;0.50;;;13.80;99.90;;;;;;4971896;28;20189;-79
2021/12/31 03:38:11;;;;;;;4.83;0.60;;;13.80;99.90;;;;;;4970824;28;20039;-78
2021/12/31 03:40:40;;;;;;;2.43;0.53;;;13.90;99.90;;;;;;4971528;28;21118;-78
2021/12/31 03:43:08;;;;;;;1.53;1.23;;;13.90;99.90;;;;;;4967303;28;20027;-78
2021/12/31 03:45:34;;;;;;;3.80;0.90;;;13.90;99.90;;;;;;4971643;28;20029;-78
2021/12/31 03:47:59;;;;;;;3.60;0.80;;;13.80;99.90;;;;;;4969926;28;20039;-79
2021/12/31 03:50:25;;;;;;;0.97;0.50;;;13.80;99.90;;;;;;4972758;28;20027;-78
2021/12/31 03:52:51;;;;;;;2.30;0.67;;;13.80;99.90;;;;;;4967106;28;20094;-79
2021/12/31 03:55:21;;;;;;;1.27;0.50;;;13.80;99.90;;;;;;4971450;28;20098;-80
2021/12/31 03:57:47;;;;;;;3.53;0.87;;;13.80;99.90;;;;;;4968330;28;20025;-80
2021/12/31 04:00:13;;;;;;;1.83;0.63;;;13.80;99.90;;;;;;4970473;28;20050;-78
2021/12/31 04:02:39;;;;;;;1.07;0.60;;;13.80;99.90;;;;;;4973853;28;20019;-78
2021/12/31 04:05:05;;;;;;;2.40;0.67;;;13.80;99.90;;;;;;4968601;28;20085;-78
2021/12/31 04:07:31;;;;;;;0.77;0.50;;;13.80;99.90;;;;;;4990735;28;20033;-78
2021/12/31 04:09:56;;;;;;;1.43;0.60;;;13.80;99.90;;;;;;4974595;28;20036;-77
2021/12/31 04:12:29;;;;;;;3.03;0.57;;;13.80;99.90;;;;;;4974605;28;20043;-78
2021/12/31 04:14:58;;;;;;;3.20;0.70;;;13.80;99.90;;;;;;4976537;28;20019;-78
2021/12/31 04:17:24;;;;;;;1.20;0.67;;;13.80;99.90;;;;;;4973517;28;21246;-78
2021/12/31 04:19:54;;;;;;;2.57;0.77;;;13.80;99.90;;;;;;4969311;28;20027;-79
2021/12/31 04:22:22;;;;;;;2.23;0.60;;;13.80;99.90;;;;;;4992813;28;20057;-78
2021/12/31 04:27:14;;;;;;;2.47;0.60;;;13.70;99.90;;;;;;4993240;28;20019;-80
2021/12/31 04:29:40;;;;;;;1.77;0.60;;;13.70;99.90;;;;;;4972794;28;20049;-77
2021/12/31 04:32:06;;;;;;;0.87;0.50;;;13.70;99.90;;;;;;4973945;28;20046;-79
2021/12/31 04:34:35;;;;;;;0.90;0.70;;;13.70;99.90;;;;;;4973679;28;20027;-78
2021/12/31 04:37:00;;;;;;;1.57;0.80;;;13.60;99.90;;;;;;4975184;28;20074;-78
2021/12/31 04:39:29;;;;;;;1.73;0.77;;;13.60;99.90;;;;;;4992378;28;20011;-79
2021/12/31 04:41:57;;;;;;;1.83;0.60;;;13.60;99.90;;;;;;4976650;28;20050;-78
2021/12/31 04:44:22;;;;;;;0.50;0.50;;;13.60;99.90;;;;;;4993855;28;20035;-79
2021/12/31 04:46:48;;;;;;;1.27;0.60;;;13.60;99.90;;;;;;4969892;28;20039;-77
2021/12/31 04:49:14;;;;;;;1.53;0.60;;;13.60;99.90;;;;;;4976324;28;20030;-77
2021/12/31 04:51:42;;;;;;;1.03;0.43;;;13.70;99.90;;;;;;4993387;28;20109;-78
2021/12/31 04:54:14;;;;;;;2.37;0.70;;;13.70;99.90;;;;;;4971047;28;20035;-79
2021/12/31 04:56:43;;;;;;;0.77;0.65;;;13.70;99.90;;;;;;4973216;28;20023;-78
2021/12/31 04:59:09;;;;;;;1.33;0.50;;;13.70;99.90;;;;;;4973572;28;20034;-78
2021/12/31 05:01:35;;;;;;;0.83;0.33;;;13.80;99.90;;;;;;4972134;28;20285;-77
2021/12/31 05:04:05;;;;;;;1.63;0.60;;;13.70;99.90;;;;;;4973772;28;20027;-78
2021/12/31 05:06:31;;;;;;;4.33;0.50;;;13.70;99.90;;;;;;4972143;28;20050;-78
2021/12/31 05:08:59;;;;;;;2.43;0.77;;;13.60;99.90;;;;;;4992324;28;20455;-78
2021/12/31 05:11:25;;;;;;;2.63;0.40;;;13.60;99.90;;;;;;4975280;28;20039;-78
2021/12/31 05:13:51;;;;;;;1.47;0.90;;;13.50;99.90;;;;;;4972368;28;20030;-78
2021/12/31 05:16:17;;;;;;;1.53;0.70;;;13.50;99.90;;;;;;4969684;28;20038;-78
2021/12/31 05:18:45;;;;;;;1.47;0.80;;;13.60;99.90;;;;;;4971680;28;20034;-78
2021/12/31 05:21:11;;;;;;;0.90;0.70;;;13.60;99.90;;;;;;4971637;28;20019;-78
2021/12/31 05:23:42;;;;;;;0.57;0.50;;;13.60;99.90;;;;;;4972089;28;20045;-79
2021/12/31 05:26:08;;;;;;;0.60;0.47;;;13.60;99.90;;;;;;4992415;28;20050;-78
2021/12/31 05:28:33;;;;;;;0.70;0.60;;;13.60;99.90;;;;;;4975914;28;20027;-78
2021/12/31 05:30:59;;;;;;;1.53;0.60;;;13.70;99.90;;;;;;4975462;28;20038;-79
2021/12/31 05:33:28;;;;;;;2.57;0.70;;;13.60;99.90;;;;;;4971302;28;20049;-78
2021/12/31 05:35:56;;;;;;;1.90;0.63;;;13.60;99.90;;;;;;4992186;28;20025;-79
2021/12/31 05:38:22;;;;;;;2.60;1.00;;;13.60;99.90;;;;;;4969223;28;20050;-78
2021/12/31 05:40:48;;;;;;;1.63;1.37;;;13.60;99.90;;;;;;4991729;28;20026;-79
2021/12/31 05:43:13;;;;;;;3.97;0.90;;;13.60;99.90;;;;;;4969228;28;20023;-78
2021/12/31 05:45:39;;;;;;;0.97;0.73;;;13.60;99.90;;;;;;4991459;28;20034;-78
2021/12/31 05:48:05;;;;;;;1.73;0.60;;;13.60;99.90;;;;;;4973479;28;20027;-78
2021/12/31 05:50:34;;;;;;;1.80;0.90;;;13.60;99.90;;;;;;4969275;28;20027;-78
2021/12/31 05:53:00;;;;;;;3.83;1.13;;;13.50;99.90;;;;;;4991747;28;20026;-79
2021/12/31 05:55:27;;;;;;;3.80;1.37;;;13.60;99.90;;;;;;4974662;28;20033;-77
2021/12/31 05:57:55;;;;;;;1.30;0.80;;;13.50;99.90;;;;;;4973905;28;20037;-77
2021/12/31 06:00:22;;;;;;;1.37;0.80;;;13.60;99.90;;;;;;4970704;28;20026;-80
2021/12/31 06:02:47;;;;;;;1.57;0.90;;;13.60;99.90;;;;;;4974359;28;20031;-78
2021/12/31 06:05:13;;;;;;;0.97;0.50;;;13.60;99.90;;;;;;4990058;28;20045;-77
2021/12/31 06:07:44;;;;;;;4.10;0.80;;;13.60;99.90;;;;;;4970356;28;20022;-79
2021/12/31 06:10:10;;;;;;;2.60;0.60;;;13.60;99.90;;;;;;4974522;28;20061;-77
2021/12/31 06:12:37;;;;;;;1.23;0.63;;;13.60;99.90;;;;;;4969562;28;20046;-79
2021/12/31 06:15:05;;;;;;;0.87;0.60;;;13.50;99.90;;;;;;4971734;28;20043;-79
2021/12/31 06:17:34;;;;;;;1.23;0.80;;;13.50;99.90;;;;;;4973446;28;20027;-78
2021/12/31 06:20:00;;;;;;;1.07;0.70;;;13.60;99.90;;;;;;4990915;28;20030;-79
2021/12/31 06:22:29;;;;;;;0.70;0.50;;;13.50;99.90;;;;;;4970216;28;20090;-79
2021/12/31 06:24:55;;;;;;;2.93;0.80;;;13.50;99.90;;;;;;4968205;28;20023;-79
2021/12/31 06:27:21;;;;;;;1.83;0.60;;;13.60;99.90;;;;;;4971660;28;20030;-78
2021/12/31 06:29:49;;;;;;;2.27;0.70;;;13.40;99.90;;;;;;4968744;28;20091;-79
2021/12/31 06:32:15;;;;;;;1.50;0.70;;;13.50;99.90;;;;;;4967628;28;20039;-78
2021/12/31 06:34:40;;;;;;;1.10;0.80;;;13.40;99.90;;;;;;4972666;28;20019;-78
2021/12/31 06:37:08;;;;;;;1.00;0.60;;;13.40;99.90;;;;;;4969902;28;20033;-77
2021/12/31 06:39:35;;;;;;;1.77;0.70;;;13.30;99.90;;;;;;4972945;28;20025;-79
2021/12/31 06:42:03;;;;;;;3.47;0.60;;;13.40;99.90;;;;;;4968400;28;20042;-78
2021/12/31 06:44:30;;;;;;;1.83;0.93;;;13.30;99.90;;;;;;4969424;28;20039;-78
2021/12/31 06:46:55;;;;;;;1.20;0.77;;;13.20;99.90;;;;;;4969478;28;20019;-78
2021/12/31 06:49:23;;;;;;;1.60;1.00;;;13.20;99.90;;;;;;4990623;28;20087;-78
2021/12/31 06:51:49;;;;;;;7.43;2.63;;;13.20;99.90;;;;;;4973284;28;20038;-77
2021/12/31 06:54:15;;;;;;;1.80;0.63;;;13.10;99.90;;;;;;4989531;28;20035;-78
2021/12/31 06:56:40;;;;;;;3.93;1.00;;;13.10;99.90;;;;;;4990552;28;20016;-79
2021/12/31 06:59:08;;;;;;;4.33;2.37;;;13.00;99.90;;;;;;4991015;28;20122;-78
2021/12/31 07:01:34;;;;;;;2.50;0.70;;;12.70;99.90;;;;;;4968230;28;20019;-78
2021/12/31 07:04:03;;;;;;;3.13;1.30;;;12.80;99.90;;;;;;4968611;28;20090;-78
2021/12/31 07:06:28;;;;;;;1.90;1.00;;;12.70;99.90;;;;;;4969541;28;20030;-78
2021/12/31 07:08:54;;;;;;;5.47;1.63;;;12.60;99.90;;;;;;4990963;28;20042;-78
2021/12/31 07:11:22;;;;;;;1.83;0.87;;;12.50;99.90;;;;;;4967508;28;20055;-79
2021/12/31 07:13:48;;;;;;;0.90;0.70;;;12.50;99.90;;;;;;4973145;28;20034;-78
2021/12/31 07:16:14;;;;;;;1.50;0.70;;;12.60;99.90;;;;;;4991710;28;20027;-78
2021/12/31 07:18:45;;;;;;;9.07;1.47;;;12.50;99.90;;;;;;4971209;28;20047;-78
2021/12/31 07:21:11;;;;;;;1.27;0.77;;;12.50;99.90;;;;;;4968458;28;20042;-78
2021/12/31 07:23:39;;;;;;;1.77;0.70;;;12.40;99.90;;;;;;4990102;28;20151;-78
2021/12/31 07:26:06;;;;;;;2.80;1.37;;;12.40;99.90;;;;;;4970948;28;20042;-78
2021/12/31 07:28:32;;;;;;;5.70;0.80;;;12.40;99.90;;;;;;4973299;28;20041;-79
2021/12/31 07:31:00;;;;;;;2.20;0.60;;;12.30;99.90;;;;;;4990534;28;20035;-77
2021/12/31 07:33:26;;;;;;;1.73;0.80;;;12.30;99.90;;;;;;4969673;28;20027;-79
2021/12/31 07:35:57;;;;;;;0.80;0.80;;;12.20;99.90;;;;;;4973429;28;20062;-78
2021/12/31 07:38:31;;;;;;;3.27;1.20;;;12.30;99.90;;;;;;4967021;28;20065;-78
2021/12/31 07:40:59;;;;;;;2.80;0.77;;;12.30;99.90;;;;;;4990851;28;20051;-78
2021/12/31 07:43:27;;;;;;;4.10;0.70;;;12.30;99.90;;;;;;4974686;28;20083;-77
2021/12/31 07:45:56;;;;;;;1.73;0.80;;;12.30;99.90;;;;;;4976332;28;20103;-78
2021/12/31 07:48:26;;;;;;;4.70;1.77;;;12.30;99.90;;;;;;4977347;28;20099;-78
2021/12/31 07:50:53;;;;;;;0.83;0.60;;;12.30;99.90;;;;;;4975397;28;20051;-78
2021/12/31 07:53:21;;;;;;;1.60;0.90;;;12.30;99.90;;;;;;4971866;28;20019;-79
2021/12/31 07:55:47;;;;;;;1.17;0.70;;;12.40;99.90;;;;;;4975963;28;20186;-78
2021/12/31 07:58:13;;;;;;;1.77;0.80;;;12.30;99.90;;;;;;4972523;28;20023;-78
2021/12/31 08:00:39;;;;;;;5.70;1.53;;;12.40;99.90;;;;;;4972592;28;20026;-79
2021/12/31 08:03:07;;;;;;;5.07;1.20;;;12.20;99.90;;;;;;4993873;28;20022;-78
2021/12/31 08:05:36;;;;;;;3.07;0.60;;;12.30;99.90;;;;;;4975456;28;20043;-79
2021/12/31 08:08:04;;;;;;;3.00;0.97;;;12.30;99.90;;;;;;4993099;28;20042;-78
2021/12/31 08:10:32;;;;;;;6.17;1.37;;;12.40;99.90;;;;;;4975741;28;20023;-79
2021/12/31 08:13:04;;;;;;;1.50;0.90;;;12.40;99.90;;;;;;4975988;28;20365;-79
2021/12/31 08:15:38;;;;;;;3.50;1.13;;;12.40;99.90;;;;;;4975311;28;20029;-79
2021/12/31 08:18:04;;;;;;;2.57;1.30;;;12.40;99.90;;;;;;4975068;28;20102;-77
2021/12/31 08:20:32;;;;;;;1.53;1.00;;;12.40;99.90;;;;;;4974182;28;20023;-77
2021/12/31 08:23:09;;;;;;;3.37;0.57;;;12.50;99.90;;;;;;4969475;28;20026;-79
2021/12/31 08:25:36;;;;;;;2.23;0.73;;;12.50;99.90;;;;;;4974420;28;20029;-79
2021/12/31 08:28:02;;;;;;;1.20;0.70;;;12.50;99.90;;;;;;4975604;28;20027;-79
2021/12/31 08:30:27;;;;;;;1.40;0.63;;;12.50;99.90;;;;;;4971447;28;20035;-78
2021/12/31 08:32:56;;;;;;;1.20;0.97;;;12.60;99.90;;;;;;4970485;28;20058;-77
2021/12/31 08:35:22;;;;;;;2.00;0.70;;;12.50;99.90;;;;;;4975797;28;20082;-79
2021/12/31 08:37:47;;;;;;;2.50;0.77;;;12.60;99.90;;;;;;4969969;28;20035;-78
2021/12/31 08:40:13;;;;;;;2.73;1.10;;;12.40;99.90;;;;;;4972113;28;20064;-78
2021/12/31 08:42:40;;;;;;;4.43;1.70;;;12.60;99.90;;;;;;4971064;28;20019;-79
2021/12/31 08:45:06;;;;;;;1.60;0.90;;;12.60;99.90;;;;;;4993085;28;20138;-78
2021/12/31 08:47:32;;;;;;;3.37;1.20;;;12.60;99.90;;;;;;4972050;28;20058;-79
2021/12/31 08:49:57;;;;;;;5.30;0.83;;;12.60;99.90;;;;;;4974692;28;20100;-79
2021/12/31 08:52:25;;;;;;;0.83;0.63;;;12.70;99.90;;;;;;4975902;28;20162;-78
2021/12/31 08:54:51;;;;;;;1.20;0.90;;;12.70;99.90;;;;;;4974994;28;20074;-78
2021/12/31 08:57:17;;;;;;;2.77;0.83;;;12.70;99.90;;;;;;4972048;28;20019;-77
2021/12/31 08:59:43;;;;;;;1.70;0.90;;;12.70;99.90;;;;;;4972654;28;20035;-79
2021/12/31 09:02:13;;;;;;;3.20;0.80;;;12.70;99.90;;;;;;4991353;28;20022;-78
2021/12/31 09:04:39;;;;;;;1.43;0.70;;;12.70;99.90;;;;;;4973354;28;20041;-79
2021/12/31 09:07:05;;;;;;;1.27;0.77;;;12.70;99.90;;;;;;4971119;28;20086;-79
2021/12/31 09:09:31;;;;;;;2.60;0.60;;;12.60;99.90;;;;;;4969982;28;20026;-78
2021/12/31 09:11:56;;;;;;;1.30;0.80;;;12.70;99.90;;;;;;4992690;28;20049;-79
2021/12/31 09:14:24;;;;;;;2.60;0.80;;;12.80;99.90;;;;;;4969315;28;20022;-78
2021/12/31 09:16:51;;;;;;;3.33;0.80;;;12.80;99.90;;;;;;4990707;28;20050;-79
2021/12/31 09:19:17;;;;;;;1.57;0.60;;;12.80;99.90;;;;;;4974707;28;20086;-79
2021/12/31 09:21:43;;;;;;;2.97;0.83;;;12.90;99.90;;;;;;4971373;28;20050;-78
2021/12/31 09:24:10;;;;;;;3.07;0.57;;;12.90;99.90;;;;;;4971382;28;20050;-78
2021/12/31 09:26:36;;;;;;;1.00;0.80;;;13.00;99.90;;;;;;4974442;28;20035;-80
2021/12/31 09:29:04;;;;;;;1.00;0.60;;;12.90;99.90;;;;;;4974606;28;20054;-79
2021/12/31 09:31:37;;;;;;;16.30;1.40;;;13.00;99.90;;;;;;4997298;23;21116;-79
2021/12/31 09:34:03;;;;;;;2.93;0.83;;;13.00;99.90;;;;;;4986832;28;20015;-79
2021/12/31 09:36:30;;;;;;;1.60;0.80;;;13.00;99.90;;;;;;4970131;28;20035;-78
2021/12/31 09:38:56;;;;;;;0.80;0.70;;;13.00;99.90;;;;;;4968407;28;20038;-79
2021/12/31 09:41:24;;;;;;;5.27;0.87;;;13.00;99.90;;;;;;4977283;28;20035;-80
2021/12/31 09:43:55;;;;;;;0.90;0.63;;;13.10;99.90;;;;;;4986604;28;20031;-80
2021/12/31 09:46:22;;;;;;;1.87;0.70;;;13.10;99.90;;;;;;4984484;28;20034;-80
2021/12/31 09:48:51;;;;;;;1.33;0.70;;;13.10;99.90;;;;;;4967256;28;20023;-81
2021/12/31 09:51:18;;;;;;;1.27;0.60;;;13.10;99.90;;;;;;4985752;28;20054;-80
2021/12/31 09:53:46;;;;;;;0.67;0.60;;;13.20;99.90;;;;;;4985129;28;20042;-80
2021/12/31 09:56:15;;;;;;;2.07;1.17;;;13.20;99.90;;;;;;5121994;23;20035;-79
2021/12/31 09:58:41;;;;;;;2.33;1.00;;;13.20;99.90;;;;;;4987528;28;20033;-79
2021/12/31 10:01:09;;;;;;;1.93;1.17;;;13.10;99.90;;;;;;4988188;28;20030;-79
2021/12/31 10:03:37;;;;;;;5.33;1.50;;;13.20;99.90;;;;;;4986025;28;20046;-79
2021/12/31 10:06:08;;;;;;;8.97;1.70;;;13.20;99.90;;;;;;5074300;23;20097;-78
2021/12/31 10:08:50;;;;;;;2.90;1.10;;;13.20;99.90;;;;;;4999173;23;20179;-79
2021/12/31 10:11:24;;;;;;;2.50;1.40;;;13.30;99.90;;;;;;4989625;28;20031;-79
2021/12/31 10:13:59;;;;;;;1.90;1.00;;;13.30;99.90;;;;;;4988573;28;21247;-79
2021/12/31 10:16:36;;;;;;;1.20;0.63;;;13.30;99.90;;;;;;5009325;23;20040;-79
2021/12/31 10:19:18;;;;;;;1.40;0.90;;;13.40;99.90;;;;;;4931205;28;20066;-78
2021/12/31 10:22:16;;;;;;;2.28;0.80;;;13.40;99.90;;;;;;4995278;23;20049;-78
2021/12/31 10:24:48;;;;;;;2.13;0.70;;;13.40;99.90;;;;;;4983135;23;20031;-79
2021/12/31 10:27:20;;;;;;;0.57;0.40;;;13.40;99.90;;;;;;4984897;28;20041;-78
2021/12/31 10:30:06;;;;;;;2.83;0.97;;;13.50;99.90;;;;;;4983943;28;20062;-79
2021/12/31 10:32:36;;;;;;;1.30;0.77;;;13.60;99.90;;;;;;4973542;28;20106;-79
2021/12/31 10:35:18;;;;;;;3.53;2.20;;;13.60;99.90;;;;;;5050126;23;20065;-79
2021/12/31 10:38:00;;;;;;;1.48;0.68;;;13.60;99.90;;;;;;4985924;28;20022;-79
2021/12/31 10:40:26;;;;;;;;;;;13.50;99.90;;;;;;4985645;28;20031;-78
2021/12/31 10:43:15;;;;;;;2.10;1.03;;;13.70;99.90;;;;;;4984189;28;19940;-79
2021/12/31 10:46:04;;;;;;;1.33;0.90;;;13.70;99.90;;;;;;4989580;28;20027;-79
2021/12/31 10:48:50;;;;;;;3.17;0.87;;;13.70;99.90;;;;;;5464107;23;20013;-77
2021/12/31 10:51:36;;;;;;;2.80;1.10;;;13.70;99.90;;;;;;5077607;23;20061;-79
2021/12/31 10:57:14;;;;;;;6.60;1.70;;;13.80;99.90;;;;;;5010483;23;20077;-78
2021/12/31 10:59:48;;;;;;;4.97;1.67;;;13.90;99.90;;;;;;4991674;28;20027;-78
2021/12/31 11:02:20;;;;;;;6.03;2.47;;;13.80;99.90;;;;;;4989013;28;20027;-78
2021/12/31 11:04:59;;;;;;;2.47;1.27;;;13.70;99.90;;;;;;4977455;28;20128;-78
2021/12/31 11:07:29;;;;;;;3.03;1.40;;;13.90;99.90;;;;;;4992323;28;20201;-77
2021/12/31 11:10:04;;;;;;;1.40;1.10;;;13.90;99.90;;;;;;5059708;23;20084;-78
2021/12/31 11:12:34;;;;;;;2.13;1.20;;;13.90;99.90;;;;;;5188108;23;20057;-77
2021/12/31 11:15:14;;;;;;;1.50;1.03;;;14.00;99.90;;;;;;4985108;28;20677;-79
2021/12/31 11:17:42;;;;;;;1.33;0.90;;;14.00;99.90;;;;;;4967626;28;20026;-78
2021/12/31 11:20:15;;;;;;;6.30;1.40;;;14.00;99.90;;;;;;4990973;28;20046;-78
2021/12/31 11:22:43;;;;;;;0.97;0.70;;;13.90;99.90;;;;;;5171715;23;20061;-80
2021/12/31 11:25:26;;;;;;;1.27;0.82;;;13.90;99.90;;;;;;4995709;28;20031;-77
2021/12/31 11:28:02;;;;;;;1.13;0.97;;;13.90;99.90;;;;;;4994835;28;20022;-78
2021/12/31 11:30:43;;;;;;;2.97;0.97;;;14.00;99.90;;;;;;5173447;23;20032;-79
2021/12/31 11:33:15;;;;;;;2.55;1.00;;;13.90;99.90;;;;;;5000095;23;20051;-77
2021/12/31 11:38:15;;;;;;;2.20;1.37;;;13.90;99.90;;;;;;5235217;23;20047;-80
2021/12/31 11:40:51;;;;;;;3.63;1.50;;;13.90;99.90;;;;;;4959716;28;20028;-81
2021/12/31 11:43:24;;;;;;;2.47;1.20;;;13.90;99.90;;;;;;4993454;23;20232;-80
2021/12/31 11:46:09;;;;;;;2.40;1.23;;;13.70;99.90;;;;;;4966757;28;20008;-80
2021/12/31 11:48:50;;;;;;;2.50;1.00;;;13.90;99.90;;;;;;4965741;28;20051;-80
2021/12/31 11:51:34;;;;;;;2.97;1.20;;;13.90;99.90;;;;;;4948921;28;20063;-78
2021/12/31 11:54:00;;;;;;;1.97;0.97;;;13.80;99.90;;;;;;5016405;23;20042;-78
2021/12/31 11:56:43;;;;;;;1.93;1.10;;;13.90;99.90;;;;;;5008801;23;20058;-79
2021/12/31 11:59:09;;;;;;;1.97;1.20;;;13.90;99.90;;;;;;4979417;28;20210;-78
2021/12/31 12:07:09;;;;;;;2.00;0.97;;;14.00;99.90;;;;;;5285347;23;20956;-78
2021/12/31 12:09:40;;;;;;;7.53;1.20;;;14.00;99.90;;;;;;4980365;23;20063;-78
2021/12/31 12:12:18;;;;;;;1.33;0.83;;;14.20;99.90;;;;;;5011224;23;20019;-78
2021/12/31 12:14:49;;;;;;;2.80;1.33;;;14.10;99.90;;;;;;5010377;23;20047;-78
2021/12/31 12:17:28;;;;;;;1.87;1.23;;;14.10;99.90;;;;;;4977853;28;20223;-77
2021/12/31 12:22:39;;;;;;;2.70;1.50;;;14.10;99.90;;;;;;4952285;28;20055;-78
2021/12/31 12:25:25;;;;;;;3.23;1.47;;;14.20;99.90;;;;;;4967045;28;20122;-77
2021/12/31 12:28:02;;;;;;;3.90;1.20;;;14.20;99.90;;;;;;4964603;28;20023;-77
2021/12/31 12:30:34;;;;;;;3.23;1.60;;;14.20;99.90;;;;;;4956430;28;20098;-74
2021/12/31 12:33:16;;;;;;;4.07;1.00;;;14.20;99.90;;;;;;4948448;28;20036;-74
2021/12/31 12:35:46;;;;;;;1.55;0.88;;;14.40;99.90;;;;;;4948808;28;20073;-74
2021/12/31 12:38:21;;;;;;;3.47;1.33;;;14.40;99.90;;;;;;4955576;28;20035;-74
2021/12/31 12:41:02;;;;;;;3.13;1.37;;;14.50;99.90;;;;;;4963031;28;20023;-74
2021/12/31 12:43:32;;;;;;;1.92;1.33;;;;;;;;;;4960874;28;20034;-76
2021/12/31 12:46:06;;;;;;;1.75;1.00;;;;;;;;;;4948477;28;20031;-76
2021/12/31 12:48:34;;;;;;;3.17;1.10;;;;;;;;;;4951533;28;20062;-78
2021/12/31 12:51:04;;;;;;;1.80;0.63;;;;;;;;;;4951827;28;20028;-76
2021/12/31 12:53:36;;;;;;;2.38;0.80;;;;;;;;;;4939536;29;20090;-78
2021/12/31 12:56:08;;;;;;;5.47;0.60;;;;;;;;;;4951097;28;20027;-76
2021/12/31 12:58:35;;;;;;;0.70;0.52;;;;;;;;;;4936593;29;20358;-76
2021/12/31 13:01:06;;;;;;;0.90;0.57;;;;;;;;;;4938213;29;20064;-76
2021/12/31 13:03:46;;;;;;;0.40;0.30;;;;;;;;;;4940873;29;20031;-75
2021/12/31 13:06:12;;;;;;;0.85;0.57;;;;;;;;;;4954532;29;20020;-75
2021/12/31 13:08:38;;;;;;;0.40;0.30;;;;;;;;;;4961414;28;20027;-75
2021/12/31 13:11:06;;;;;;;1.15;0.60;;;;;;;;;;4952565;28;20044;-74
2021/12/31 13:13:32;;;;;;;1.25;0.57;;;;;;;;;;4950713;29;20086;-76
2021/12/31 13:16:02;;;;;;;1.67;0.90;;;;;;;;;;4945892;29;20028;-74
2021/12/31 13:18:32;;;;;;;1.88;0.60;;;;;;;;;;4958076;28;20038;-74